Time;durP1;ratioP1;P1;durP2;ratioP2;P2;SDS_P1;SDS_P2;PMS_P1;PMS_P2;Temp;Humidity;BMP_temperature;BMP_pressure;BME280_temperature;BME280_humidity;BME280_pressure;Samples;Min_cycle;Max_cycle;Signal;HPM_P1;HPM_P2
2022/08/29 00:00:48;;;;;;;3.37;2.00;;;17.50;99.90;;;;;;5092775;28;20666;-89
2022/08/29 00:03:19;;;;;;;2.50;2.30;;;17.40;99.90;;;;;;5089182;28;20534;-88
2022/08/29 00:05:46;;;;;;;2.67;2.00;;;17.10;99.90;;;;;;5089934;28;21103;-84
2022/08/29 00:08:14;;;;;;;2.03;1.33;;;17.00;99.90;;;;;;5089642;28;20482;-88
2022/08/29 00:10:42;;;;;;;2.47;1.73;;;17.00;99.90;;;;;;5089166;28;20470;-85
2022/08/29 00:13:10;;;;;;;3.07;2.20;;;16.90;99.90;;;;;;5089441;27;20469;-85
2022/08/29 00:15:38;;;;;;;2.50;1.23;;;16.80;99.90;;;;;;5091052;28;20484;-86
2022/08/29 00:18:06;;;;;;;2.13;1.30;;;16.80;99.90;;;;;;5097424;27;20554;-86
2022/08/29 00:20:35;;;;;;;2.50;1.87;;;16.80;99.90;;;;;;5132842;27;20457;-84
2022/08/29 00:23:02;;;;;;;2.80;1.93;;;16.70;99.90;;;;;;5123974;27;20508;-85
2022/08/29 00:25:31;;;;;;;3.00;2.27;;;16.70;99.90;;;;;;5110859;27;20549;-84
2022/08/29 00:27:58;;;;;;;2.10;1.83;;;16.70;99.90;;;;;;5113423;27;20541;-84
2022/08/29 00:30:25;;;;;;;2.73;2.43;;;16.60;99.90;;;;;;5102403;27;20474;-84
2022/08/29 00:32:52;;;;;;;4.40;3.63;;;16.70;99.90;;;;;;5101906;27;20521;-87
2022/08/29 00:35:23;;;;;;;4.30;2.27;;;16.70;99.90;;;;;;5097180;27;20454;-85
2022/08/29 00:37:50;;;;;;;4.03;3.27;;;16.60;99.90;;;;;;5096092;27;20458;-85
2022/08/29 00:40:21;;;;;;;5.00;3.10;;;16.60;99.90;;;;;;5099969;27;20466;-86
2022/08/29 00:42:50;;;;;;;2.97;2.00;;;16.60;99.90;;;;;;5097231;27;20518;-84
2022/08/29 00:45:17;;;;;;;3.30;2.90;;;16.60;99.90;;;;;;5098641;27;20822;-84
2022/08/29 00:47:51;;;;;;;2.67;2.40;;;16.70;99.90;;;;;;5095378;27;20513;-85
2022/08/29 00:50:24;;;;;;;3.17;2.87;;;16.70;99.90;;;;;;5096615;27;20461;-85
2022/08/29 00:52:52;;;;;;;3.13;2.83;;;16.70;99.90;;;;;;5099367;27;20457;-85
2022/08/29 00:55:22;;;;;;;3.33;3.03;;;16.70;99.90;;;;;;5099180;27;20474;-85
2022/08/29 00:57:55;;;;;;;2.20;1.90;;;16.80;99.90;;;;;;5093803;27;20484;-84
2022/08/29 01:00:23;;;;;;;5.03;2.30;;;16.70;99.90;;;;;;5092467;27;20469;-88
2022/08/29 01:02:50;;;;;;;4.17;2.40;;;16.70;99.90;;;;;;5091988;27;20472;-85
2022/08/29 01:05:18;;;;;;;2.70;2.27;;;16.80;99.90;;;;;;5095710;27;20495;-85
2022/08/29 01:07:46;;;;;;;2.47;2.27;;;16.90;99.90;;;;;;5095291;27;20522;-85
2022/08/29 01:12:14;;;;;;;2.77;2.50;;;16.90;99.90;;;;;;5093775;27;20464;-85
2022/08/29 01:13:04;;;;;;;3.67;2.30;;;17.00;99.90;;;;;;5094890;27;21141;-83
2022/08/29 01:15:33;;;;;;;2.30;1.87;;;16.90;99.90;;;;;;5091510;27;20526;-84
2022/08/29 01:18:01;;;;;;;3.33;2.60;;;16.90;99.90;;;;;;5095105;27;20515;-88
2022/08/29 01:20:39;;;;;;;7.70;2.70;;;17.00;99.90;;;;;;5099901;27;20540;-88
2022/08/29 01:23:13;;;;;;;1.77;1.63;;;16.90;99.90;;;;;;5090710;27;20477;-84
2022/08/29 01:25:47;;;;;;;2.93;2.20;;;16.90;99.90;;;;;;5094145;27;20489;-84
2022/08/29 01:28:19;;;;;;;2.53;2.33;;;16.90;99.90;;;;;;5090316;27;20462;-86
2022/08/29 01:31:01;;;;;;;4.03;2.67;;;16.90;99.90;;;;;;5092234;27;20461;-88
2022/08/29 01:33:42;;;;;;;1.97;1.87;;;16.90;99.90;;;;;;5093554;27;20473;-84
2022/08/29 01:36:11;;;;;;;3.70;2.73;;;16.90;99.90;;;;;;5090111;27;22536;-90
2022/08/29 01:38:38;;;;;;;3.73;3.43;;;16.80;99.90;;;;;;5092895;27;20493;-84
2022/08/29 01:41:08;;;;;;;3.63;2.30;;;16.80;99.90;;;;;;5091515;27;20458;-85
2022/08/29 01:43:41;;;;;;;3.33;2.90;;;16.80;99.90;;;;;;5089464;27;20473;-85
2022/08/29 01:46:09;;;;;;;5.63;2.70;;;16.80;99.90;;;;;;5093436;27;20489;-85
2022/08/29 01:48:38;;;;;;;2.83;2.20;;;16.80;99.90;;;;;;5095841;27;20474;-87
2022/08/29 01:51:06;;;;;;;2.57;2.27;;;16.80;99.90;;;;;;5092646;27;20470;-84
2022/08/29 01:53:33;;;;;;;2.50;2.07;;;16.80;99.90;;;;;;5093157;27;20522;-85
2022/08/29 01:56:00;;;;;;;3.10;1.93;;;16.90;99.90;;;;;;5091038;27;20457;-85
2022/08/29 01:58:28;;;;;;;2.00;1.73;;;16.80;99.90;;;;;;5093209;27;20499;-88
2022/08/29 02:00:56;;;;;;;2.77;2.37;;;16.80;99.90;;;;;;5090912;27;20505;-85
2022/08/29 02:03:24;;;;;;;2.90;2.43;;;16.80;99.90;;;;;;5089417;27;20983;-85
2022/08/29 02:05:51;;;;;;;2.77;2.20;;;16.80;99.90;;;;;;5091818;27;21060;-87
2022/08/29 02:08:19;;;;;;;3.07;2.47;;;16.90;99.90;;;;;;5090470;27;20628;-85
2022/08/29 02:10:47;;;;;;;3.40;2.70;;;16.90;99.90;;;;;;5092646;27;20502;-85
2022/08/29 02:13:14;;;;;;;3.13;2.20;;;16.80;99.90;;;;;;5092133;27;20562;-86
2022/08/29 02:15:42;;;;;;;3.30;3.00;;;16.90;99.90;;;;;;5092778;27;20462;-85
2022/08/29 02:18:09;;;;;;;3.70;2.87;;;16.90;99.90;;;;;;5092440;27;20474;-84
2022/08/29 02:20:36;;;;;;;4.40;2.77;;;16.90;99.90;;;;;;5089869;27;20475;-90
2022/08/29 02:23:03;;;;;;;3.30;3.00;;;17.00;99.90;;;;;;5091248;27;20557;-85
2022/08/29 02:28:16;;;;;;;5.43;2.57;;;16.90;99.90;;;;;;5088271;27;20899;-84
2022/08/29 02:30:51;;;;;;;2.90;2.57;;;16.80;99.90;;;;;;5094013;27;20476;-88
2022/08/29 02:33:19;;;;;;;4.03;3.53;;;16.80;99.90;;;;;;5093432;27;20461;-85
2022/08/29 02:35:47;;;;;;;3.90;2.30;;;16.90;99.90;;;;;;5091274;27;20473;-84
2022/08/29 02:38:15;;;;;;;4.43;2.73;;;16.90;99.90;;;;;;5094112;27;20489;-86
2022/08/29 02:40:43;;;;;;;3.70;3.20;;;16.90;99.90;;;;;;5098052;27;20549;-85
2022/08/29 02:43:11;;;;;;;5.30;3.07;;;16.80;99.90;;;;;;5099437;27;20462;-85
2022/08/29 02:45:40;;;;;;;4.00;3.00;;;16.80;99.90;;;;;;5089272;27;20493;-85
2022/08/29 02:48:10;;;;;;;3.70;3.40;;;17.00;99.90;;;;;;5091275;27;20465;-88
2022/08/29 02:50:41;;;;;;;6.67;3.23;;;16.90;99.90;;;;;;5091627;27;20553;-84
2022/08/29 02:53:08;;;;;;;2.50;1.90;;;16.90;99.90;;;;;;5087642;27;21196;-84
2022/08/29 02:55:35;;;;;;;3.93;3.63;;;16.90;99.90;;;;;;5089042;27;20482;-85
2022/08/29 02:58:02;;;;;;;4.00;2.37;;;16.90;99.90;;;;;;5093424;27;20878;-87
2022/08/29 03:00:29;;;;;;;8.60;3.27;;;16.90;99.90;;;;;;5087398;27;21080;-85
2022/08/29 03:02:57;;;;;;;3.23;2.50;;;17.00;99.90;;;;;;5091865;27;20461;-85
2022/08/29 03:05:31;;;;;;;3.03;2.77;;;17.00;99.90;;;;;;5094366;28;20484;-88
2022/08/29 03:07:58;;;;;;;3.27;2.20;;;17.00;99.90;;;;;;5106036;27;20495;-85
2022/08/29 03:10:26;;;;;;;2.90;2.47;;;17.00;99.90;;;;;;5105226;27;20473;-84
2022/08/29 03:12:53;;;;;;;3.07;2.70;;;16.90;99.90;;;;;;5106603;28;20446;-85
2022/08/29 03:15:21;;;;;;;5.83;2.50;;;16.90;99.90;;;;;;5124188;28;20450;-84
2022/08/29 03:17:49;;;;;;;3.47;3.03;;;16.90;99.90;;;;;;5111879;28;20696;-86
2022/08/29 03:20:18;;;;;;;3.00;2.30;;;16.80;99.90;;;;;;5132104;27;20461;-85
2022/08/29 03:22:48;;;;;;;4.33;2.63;;;16.70;99.90;;;;;;5118411;28;20465;-84
2022/08/29 03:25:15;;;;;;;3.13;2.87;;;16.60;99.90;;;;;;5118503;28;20442;-84
2022/08/29 03:27:42;;;;;;;2.47;2.27;;;16.60;99.90;;;;;;5108606;28;20462;-89
2022/08/29 03:30:13;;;;;;;2.80;2.60;;;16.50;99.90;;;;;;5110037;27;20466;-85
2022/08/29 03:32:40;;;;;;;3.10;2.27;;;16.40;99.90;;;;;;5106405;28;20472;-90
2022/08/29 03:35:09;;;;;;;2.23;2.03;;;16.30;99.90;;;;;;5105784;28;20461;-85
2022/08/29 03:37:36;;;;;;;3.27;1.97;;;16.30;99.90;;;;;;5105425;28;21987;-85
2022/08/29 03:40:07;;;;;;;4.37;2.00;;;16.40;99.90;;;;;;5106576;27;20950;-88
2022/08/29 03:42:34;;;;;;;3.43;2.47;;;16.40;99.90;;;;;;5105605;27;20472;-88
2022/08/29 03:45:02;;;;;;;2.60;2.07;;;16.40;99.90;;;;;;5105933;28;20488;-84
2022/08/29 03:47:29;;;;;;;5.00;2.63;;;16.40;99.90;;;;;;5104663;28;20485;-88
2022/08/29 03:49:56;;;;;;;3.20;2.00;;;16.40;99.90;;;;;;5105411;28;20454;-84
2022/08/29 03:52:23;;;;;;;4.13;2.27;;;16.50;99.90;;;;;;5104552;28;20458;-85
2022/08/29 03:54:51;;;;;;;3.47;1.83;;;16.50;99.90;;;;;;5105779;28;20446;-85
2022/08/29 03:57:19;;;;;;;3.23;2.53;;;16.60;99.90;;;;;;5105525;28;20462;-87
2022/08/29 03:59:47;;;;;;;5.80;2.70;;;16.70;99.90;;;;;;5106568;28;20507;-85
2022/08/29 04:02:14;;;;;;;3.20;2.17;;;16.50;99.90;;;;;;5105119;28;20544;-86
2022/08/29 04:07:27;;;;;;;3.33;1.80;;;16.50;99.90;;;;;;5106360;28;20534;-85
2022/08/29 04:09:54;;;;;;;3.10;2.83;;;16.40;99.90;;;;;;5104984;28;20454;-89
2022/08/29 04:12:22;;;;;;;4.50;3.30;;;16.40;99.90;;;;;;5105871;28;20485;-86
2022/08/29 04:14:49;;;;;;;3.33;2.93;;;16.50;99.90;;;;;;5106146;28;20517;-89
2022/08/29 04:17:16;;;;;;;2.50;2.03;;;16.50;99.90;;;;;;5105674;28;20883;-85
2022/08/29 04:19:43;;;;;;;3.10;1.97;;;16.50;99.90;;;;;;5106025;28;20996;-88
2022/08/29 04:22:12;;;;;;;3.33;2.03;;;16.40;99.90;;;;;;5106554;28;20552;-84
2022/08/29 04:24:39;;;;;;;5.53;2.67;;;16.50;99.90;;;;;;5110128;28;20552;-86
2022/08/29 04:27:06;;;;;;;4.13;2.00;;;16.60;99.90;;;;;;5105885;28;20507;-85
2022/08/29 04:29:37;;;;;;;5.60;2.27;;;16.60;99.90;;;;;;5113567;28;20510;-86
2022/08/29 04:32:04;;;;;;;6.50;2.03;;;16.60;99.90;;;;;;5100531;28;20502;-84
2022/08/29 04:34:31;;;;;;;1.90;1.70;;;16.70;99.90;;;;;;5101696;28;20492;-87
2022/08/29 04:36:58;;;;;;;2.73;2.37;;;16.70;99.90;;;;;;5103883;28;20462;-86
2022/08/29 04:39:25;;;;;;;3.83;2.23;;;16.70;99.90;;;;;;5102449;28;20491;-88
2022/08/29 04:41:52;;;;;;;3.20;2.90;;;16.80;99.90;;;;;;5095908;28;20463;-85
2022/08/29 04:44:19;;;;;;;2.97;2.30;;;16.80;99.90;;;;;;5095546;28;20890;-85
2022/08/29 04:46:48;;;;;;;2.83;1.87;;;16.80;99.90;;;;;;5094864;28;20971;-88
2022/08/29 04:49:15;;;;;;;2.13;1.93;;;16.80;99.90;;;;;;5096604;28;20808;-85
2022/08/29 04:51:42;;;;;;;3.13;2.73;;;16.80;99.90;;;;;;5099641;28;20446;-85
2022/08/29 04:54:09;;;;;;;2.33;2.13;;;16.80;99.90;;;;;;5104836;28;20462;-84
2022/08/29 04:56:37;;;;;;;2.27;2.03;;;16.90;99.90;;;;;;5093525;28;20927;-86
2022/08/29 04:59:04;;;;;;;4.70;2.37;;;17.10;99.90;;;;;;5092719;28;20454;-84
2022/08/29 05:01:31;;;;;;;3.97;2.93;;;17.10;99.90;;;;;;5082357;28;20721;-84
2022/08/29 05:04:00;;;;;;;4.13;2.60;;;17.20;99.90;;;;;;5097582;28;20952;-84
2022/08/29 05:06:27;;;;;;;2.67;2.40;;;17.20;99.90;;;;;;5096347;27;20564;-84
2022/08/29 05:08:54;;;;;;;2.93;2.27;;;17.20;99.90;;;;;;5112464;27;20456;-88
2022/08/29 05:11:21;;;;;;;2.23;2.03;;;17.20;99.90;;;;;;5105346;27;21011;-84
2022/08/29 05:13:48;;;;;;;5.30;2.47;;;17.30;99.90;;;;;;5096071;27;20975;-89
2022/08/29 05:16:17;;;;;;;2.73;2.40;;;17.30;99.90;;;;;;5101228;28;20515;-84
2022/08/29 05:18:45;;;;;;;3.83;2.97;;;17.30;99.90;;;;;;5103634;27;20502;-86
2022/08/29 05:21:14;;;;;;;2.17;1.80;;;17.30;99.90;;;;;;5098682;27;20873;-84
2022/08/29 05:23:41;;;;;;;5.10;3.50;;;17.30;99.90;;;;;;5100051;28;20462;-84
2022/08/29 05:26:08;;;;;;;6.40;2.93;;;17.30;99.90;;;;;;5101031;28;21233;-87
2022/08/29 05:28:35;;;;;;;2.80;2.53;;;17.50;99.90;;;;;;5100857;28;20467;-85
2022/08/29 05:31:03;;;;;;;5.80;3.60;;;17.60;99.90;;;;;;5102116;27;20558;-84
2022/08/29 05:33:30;;;;;;;3.10;2.03;;;17.70;99.90;;;;;;5103029;27;20956;-84
2022/08/29 05:35:57;;;;;;;3.70;2.60;;;17.70;99.90;;;;;;5104988;28;20551;-84
2022/08/29 05:38:26;;;;;;;2.90;2.17;;;17.70;99.90;;;;;;5104004;28;20463;-84
2022/08/29 05:40:53;;;;;;;2.73;2.53;;;17.80;99.90;;;;;;5097080;27;21078;-85
2022/08/29 05:43:20;;;;;;;2.33;1.80;;;17.90;99.90;;;;;;5099410;27;20513;-84
2022/08/29 05:45:47;;;;;;;10.50;3.20;;;17.90;99.90;;;;;;5102248;27;20459;-88
2022/08/29 05:48:16;;;;;;;3.47;3.17;;;18.00;99.90;;;;;;5104347;27;20543;-87
2022/08/29 05:50:44;;;;;;;5.80;2.93;;;18.10;99.90;;;;;;5099458;27;20551;-87
2022/08/29 05:53:12;;;;;;;3.17;2.80;;;18.00;99.90;;;;;;5105161;27;20806;-84
2022/08/29 05:55:44;;;;;;;3.10;2.80;;;18.20;99.90;;;;;;5100237;27;20545;-84
2022/08/29 05:58:12;;;;;;;3.67;2.93;;;18.30;99.90;;;;;;5094722;27;21007;-85
2022/08/29 06:00:40;;;;;;;3.73;3.43;;;18.50;99.90;;;;;;5109927;27;20458;-81
2022/08/29 06:03:07;;;;;;;2.30;1.77;;;18.50;99.90;;;;;;5104914;27;20907;-83
2022/08/29 06:05:34;;;;;;;3.40;3.07;;;18.50;99.90;;;;;;5101018;27;20517;-83
2022/08/29 06:08:01;;;;;;;2.53;2.33;;;18.50;99.90;;;;;;5112948;27;20479;-82
2022/08/29 06:10:29;;;;;;;3.10;2.73;;;18.50;99.90;;;;;;5102532;28;20524;-81
2022/08/29 06:12:57;;;;;;;3.87;3.00;;;18.50;99.90;;;;;;5094813;28;20452;-81
2022/08/29 06:15:27;;;;;;;3.10;2.80;;;18.60;99.90;;;;;;5104777;27;20464;-81
2022/08/29 06:17:54;;;;;;;5.20;3.50;;;18.50;99.90;;;;;;5119647;27;20942;-81
2022/08/29 06:20:22;;;;;;;3.63;3.10;;;18.60;99.90;;;;;;5121926;28;20788;-81
2022/08/29 06:22:49;;;;;;;4.03;3.20;;;18.60;99.90;;;;;;5110237;27;20510;-81
2022/08/29 06:25:16;;;;;;;5.63;3.70;;;18.60;99.90;;;;;;5107171;27;20515;-82
2022/08/29 06:27:43;;;;;;;3.73;3.30;;;18.70;99.90;;;;;;5106918;27;20546;-82
2022/08/29 06:30:12;;;;;;;5.90;3.20;;;18.80;99.90;;;;;;5098103;28;20474;-84
2022/08/29 06:32:39;;;;;;;2.60;2.27;;;18.80;99.90;;;;;;5106844;27;20468;-84
2022/08/29 06:35:06;;;;;;;1.93;1.80;;;18.90;99.90;;;;;;5104109;27;20475;-80
2022/08/29 06:37:33;;;;;;;2.60;2.33;;;19.00;99.90;;;;;;5104689;27;21230;-81
2022/08/29 06:40:00;;;;;;;3.17;2.70;;;19.10;99.90;;;;;;5097573;27;20496;-84
2022/08/29 06:42:27;;;;;;;3.53;3.23;;;19.00;99.90;;;;;;5102793;28;20471;-79
2022/08/29 06:44:54;;;;;;;2.97;2.67;;;19.00;99.90;;;;;;5098798;28;20546;-85
2022/08/29 06:47:22;;;;;;;4.80;3.47;;;18.90;99.90;;;;;;5092208;27;20488;-82
2022/08/29 06:49:49;;;;;;;4.70;3.40;;;19.20;99.90;;;;;;5099526;27;20873;-86
2022/08/29 06:52:16;;;;;;;2.60;2.40;;;19.20;99.90;;;;;;5098965;28;20451;-85
2022/08/29 06:54:43;;;;;;;4.80;2.50;;;19.00;99.90;;;;;;5102321;28;20499;-86
2022/08/29 06:57:10;;;;;;;3.60;3.30;;;19.20;99.90;;;;;;5101576;27;21299;-83
2022/08/29 06:59:37;;;;;;;3.43;2.40;;;19.50;99.90;;;;;;5103048;27;20466;-83
2022/08/29 07:02:05;;;;;;;2.30;2.13;;;19.70;99.90;;;;;;5105495;28;20446;-82
2022/08/29 07:04:33;;;;;;;3.53;3.23;;;19.90;99.90;;;;;;5096685;27;20467;-81
2022/08/29 07:07:00;;;;;;;3.40;3.17;;;19.90;99.90;;;;;;5104707;27;20587;-82
2022/08/29 07:09:29;;;;;;;4.33;3.00;;;19.90;99.90;;;;;;5097469;28;20447;-81
2022/08/29 07:11:57;;;;;;;5.53;4.80;;;19.80;99.90;;;;;;5097707;27;20474;-83
2022/08/29 07:14:24;;;;;;;4.50;3.70;;;19.90;99.90;;;;;;5105213;27;20481;-83
2022/08/29 07:16:51;;;;;;;4.23;3.60;;;20.00;99.90;;;;;;5105445;27;20584;-82
2022/08/29 07:19:18;;;;;;;5.13;3.13;;;20.30;99.90;;;;;;5096146;28;20455;-84
2022/08/29 07:21:47;;;;;;;4.47;2.97;;;20.40;99.90;;;;;;5100706;28;20461;-82
2022/08/29 07:24:14;;;;;;;2.23;2.03;;;20.60;99.90;;;;;;5100530;28;20450;-84
2022/08/29 07:26:43;;;;;;;3.33;2.40;;;21.00;99.90;;;;;;5098252;28;20497;-82
2022/08/29 07:29:14;;;;;;;2.83;2.63;;;21.10;99.90;;;;;;5091896;28;20527;-84
2022/08/29 07:31:41;;;;;;;3.10;2.87;;;21.10;99.90;;;;;;5098400;27;20538;-82
2022/08/29 07:34:08;;;;;;;6.93;2.17;;;21.20;99.90;;;;;;5095817;28;20518;-83
2022/08/29 07:36:36;;;;;;;3.47;3.17;;;21.50;99.90;;;;;;5101482;27;20906;-86
2022/08/29 07:39:07;;;;;;;4.50;3.20;;;21.70;99.90;;;;;;5101373;28;20561;-82
2022/08/29 07:41:34;;;;;;;4.20;3.80;;;21.50;99.90;;;;;;5101297;28;20535;-85
2022/08/29 07:44:01;;;;;;;3.87;3.50;;;21.20;99.90;;;;;;5102074;28;20530;-81
2022/08/29 07:46:28;;;;;;;9.30;3.30;;;21.30;99.90;;;;;;5102830;28;20975;-81
2022/08/29 07:48:58;;;;;;;3.53;3.20;;;21.00;99.90;;;;;;5099154;28;20489;-84
2022/08/29 07:51:25;;;;;;;3.93;3.30;;;21.20;99.90;;;;;;5093510;28;20461;-81
2022/08/29 07:53:53;;;;;;;3.93;3.53;;;21.40;99.90;;;;;;5093099;28;20526;-81
2022/08/29 07:56:24;;;;;;;3.43;3.00;;;21.50;99.90;;;;;;5102194;28;20454;-81
2022/08/29 07:58:52;;;;;;;6.17;5.53;;;21.60;99.90;;;;;;5098617;28;20486;-82
2022/08/29 08:01:19;;;;;;;4.00;2.07;;;21.70;99.90;;;;;;5094913;28;20552;-85
2022/08/29 08:03:46;;;;;;;4.87;4.10;;;21.50;99.90;;;;;;5093860;28;20486;-83
2022/08/29 08:06:13;;;;;;;4.50;2.73;;;21.60;99.90;;;;;;5098962;28;20458;-80
2022/08/29 08:08:40;;;;;;;3.73;3.17;;;21.60;99.90;;;;;;5099146;28;20486;-81
2022/08/29 08:11:09;;;;;;;2.40;2.20;;;21.80;99.90;;;;;;5097672;28;21092;-82
2022/08/29 08:13:38;;;;;;;5.63;2.93;;;22.00;99.90;;;;;;5101941;28;20578;-82
2022/08/29 08:16:08;;;;;;;3.90;3.50;;;22.20;99.90;;;;;;5100067;28;20458;-82
2022/08/29 08:18:36;;;;;;;3.70;3.40;;;22.50;99.90;;;;;;5096642;28;20466;-79
2022/08/29 08:21:04;;;;;;;7.37;3.87;;;22.50;99.90;;;;;;5092191;28;20508;-81
2022/08/29 08:23:32;;;;;;;4.13;3.40;;;22.70;99.90;;;;;;5104725;28;20458;-82
2022/08/29 08:26:00;;;;;;;2.83;2.63;;;22.80;99.90;;;;;;5101345;28;20515;-82
2022/08/29 08:28:29;;;;;;;4.03;2.60;;;22.80;99.90;;;;;;5090144;28;21214;-81
2022/08/29 08:30:58;;;;;;;2.53;2.03;;;22.40;99.90;;;;;;5091495;28;20481;-84
2022/08/29 08:33:26;;;;;;;4.10;3.10;;;22.40;99.90;;;;;;5088036;28;21085;-81
2022/08/29 08:35:53;;;;;;;3.83;3.47;;;22.90;99.90;;;;;;5089449;28;20509;-81
2022/08/29 08:38:21;;;;;;;3.00;2.77;;;23.10;99.90;;;;;;5103139;28;20549;-81
2022/08/29 08:40:58;;;;;;;2.87;2.60;;;23.10;99.90;;;;;;5100077;27;20474;-81
2022/08/29 08:43:33;;;;;;;3.57;3.27;;;23.10;99.90;;;;;;5098366;27;20461;-80
2022/08/29 08:46:02;;;;;;;3.80;3.43;;;22.70;99.90;;;;;;5092887;28;20457;-86
2022/08/29 08:48:36;;;;;;;3.70;3.43;;;22.70;99.90;;;;;;5093033;28;20626;-80
2022/08/29 08:51:10;;;;;;;3.10;2.90;;;22.70;99.90;;;;;;5107560;27;20466;-81
2022/08/29 08:53:40;;;;;;;3.33;3.00;;;22.50;99.90;;;;;;5089432;28;20450;-82
2022/08/29 08:56:14;;;;;;;4.50;4.20;;;22.80;99.90;;;;;;5097672;27;20570;-81
2022/08/29 08:58:50;;;;;;;4.40;3.90;;;22.90;99.90;;;;;;5114685;27;20878;-80
2022/08/29 09:01:25;;;;;;;3.90;3.57;;;23.30;99.90;;;;;;5104517;28;20515;-81
2022/08/29 09:04:16;;;;;;;5.70;4.30;;;23.20;99.90;;;;;;5104963;27;20461;-83
2022/08/29 09:07:01;;;;;;;4.50;4.10;;;23.40;99.90;;;;;;5089117;27;20552;-80
2022/08/29 09:09:39;;;;;;;4.00;3.60;;;23.80;99.90;;;;;;5102188;27;21005;-79
2022/08/29 09:12:15;;;;;;;7.77;4.00;;;24.00;99.90;;;;;;5092546;27;20464;-79
2022/08/29 09:14:55;;;;;;;3.90;3.00;;;23.90;99.90;;;;;;5106891;27;20529;-80
2022/08/29 09:17:29;;;;;;;4.17;3.77;;;23.70;99.90;;;;;;5121146;27;20474;-83
2022/08/29 09:19:57;;;;;;;3.80;2.93;;;23.90;99.90;;;;;;5127123;27;20465;-81
2022/08/29 09:22:27;;;;;;;4.00;3.60;;;23.80;99.90;;;;;;5113550;27;20549;-80
2022/08/29 09:24:57;;;;;;;9.30;4.60;;;23.60;99.90;;;;;;5113173;27;20543;-82
2022/08/29 09:27:28;;;;;;;6.10;3.97;;;23.70;99.90;;;;;;5094782;28;20532;-82
2022/08/29 09:30:03;;;;;;;3.97;3.67;;;23.70;99.90;;;;;;5095960;27;20458;-82
2022/08/29 09:32:32;;;;;;;4.30;3.57;;;24.10;99.90;;;;;;5110145;27;20453;-84
2022/08/29 09:34:59;;;;;;;7.70;4.83;;;24.10;99.90;;;;;;5102071;27;20458;-82
2022/08/29 09:37:30;;;;;;;4.30;3.90;;;24.30;99.90;;;;;;5105040;27;20493;-81
2022/08/29 09:40:02;;;;;;;4.07;3.70;;;23.60;99.90;;;;;;5104756;27;20466;-82
2022/08/29 09:42:33;;;;;;;7.13;5.10;;;23.10;99.90;;;;;;5104937;28;20450;-81
2022/08/29 09:45:07;;;;;;;5.60;5.10;;;23.20;99.90;;;;;;5105166;28;20503;-81
2022/08/29 09:47:36;;;;;;;4.07;3.77;;;22.50;99.90;;;;;;5100995;28;20532;-85
2022/08/29 09:50:08;;;;;;;4.20;3.80;;;22.50;99.90;;;;;;5101450;27;20454;-80
2022/08/29 09:52:39;;;;;;;3.57;3.27;;;22.60;99.90;;;;;;5108808;27;20559;-83
2022/08/29 09:55:23;;;;;;;4.90;3.90;;;22.80;99.90;;;;;;5107442;27;20774;-83
2022/08/29 09:57:55;;;;;;;5.80;3.90;;;23.50;99.90;;;;;;5113682;27;20474;-81
2022/08/29 10:00:30;;;;;;;5.10;4.70;;;23.70;99.90;;;;;;5103262;28;20879;-84
2022/08/29 10:03:04;;;;;;;4.33;3.97;;;23.90;99.90;;;;;;5104445;28;20465;-81
2022/08/29 10:05:43;;;;;;;7.13;3.93;;;23.50;99.90;;;;;;5107544;27;20455;-83
2022/08/29 10:08:29;;;;;;;4.70;4.00;;;23.60;99.90;;;;;;5106968;27;20490;-87
2022/08/29 10:10:59;;;;;;;4.67;3.83;;;23.60;99.90;;;;;;5102562;27;20458;-80
2022/08/29 10:13:35;;;;;;;5.63;5.17;;;23.50;99.90;;;;;;5111936;27;20465;-81
2022/08/29 10:16:12;;;;;;;4.37;3.30;;;22.90;99.90;;;;;;5107821;27;20492;-81
2022/08/29 10:18:47;;;;;;;3.73;3.43;;;23.40;99.90;;;;;;5101112;27;20558;-83
2022/08/29 10:21:29;;;;;;;3.70;3.40;;;23.50;99.90;;;;;;5105862;27;20762;-84
2022/08/29 10:24:14;;;;;;;4.00;3.57;;;23.70;99.90;;;;;;5102977;27;20501;-82
2022/08/29 10:26:48;;;;;;;4.57;2.73;;;23.80;99.90;;;;;;5109627;27;20560;-81
2022/08/29 10:29:25;;;;;;;2.60;2.33;;;24.00;99.90;;;;;;5103659;27;20544;-82
2022/08/29 10:32:01;;;;;;;3.13;2.93;;;23.80;99.90;;;;;;5107175;27;20513;-81
2022/08/29 10:34:52;;;;;;;10.80;4.80;;;23.50;99.90;;;;;;5105405;28;20462;-82
2022/08/29 10:37:30;;;;;;;4.73;4.33;;;23.50;99.90;;;;;;5107947;27;20465;-78
2022/08/29 10:40:05;;;;;;;6.10;5.47;;;23.80;99.90;;;;;;5100971;28;20976;-80
2022/08/29 10:42:35;;;;;;;3.83;3.53;;;23.50;99.90;;;;;;5099456;28;20453;-81
2022/08/29 10:45:13;;;;;;;4.40;4.00;;;22.80;99.90;;;;;;5104429;28;20462;-80
2022/08/29 10:47:47;;;;;;;3.93;3.40;;;22.50;99.90;;;;;;5108261;28;20458;-85
2022/08/29 10:50:35;;;;;;;4.90;4.40;;;23.00;99.90;;;;;;5096921;28;20515;-85
2022/08/29 10:53:15;;;;;;;5.13;3.80;;;23.30;99.90;;;;;;5097985;28;20456;-86
2022/08/29 10:55:52;;;;;;;4.03;3.50;;;23.60;99.90;;;;;;5086609;28;20470;-80
2022/08/29 10:58:39;;;;;;;6.17;4.10;;;23.50;99.90;;;;;;5093391;27;20516;-82
2022/08/29 11:01:11;;;;;;;3.70;3.40;;;23.20;99.90;;;;;;5101599;28;20533;-80
2022/08/29 11:03:44;;;;;;;3.20;2.90;;;23.80;99.90;;;;;;5098116;28;20508;-84
2022/08/29 11:06:18;;;;;;;3.90;3.60;;;24.00;99.90;;;;;;5095563;28;20507;-82
2022/08/29 11:08:51;;;;;;;4.63;4.23;;;24.30;99.90;;;;;;5103596;28;20478;-81
2022/08/29 11:11:21;;;;;;;6.20;5.30;;;24.50;99.90;;;;;;5099901;28;20467;-85
2022/08/29 11:13:52;;;;;;;5.00;3.97;;;24.60;99.90;;;;;;5101313;27;20466;-82
2022/08/29 11:16:25;;;;;;;3.37;2.83;;;24.40;99.90;;;;;;5103263;27;20522;-83
2022/08/29 11:18:59;;;;;;;2.80;2.60;;;24.60;99.90;;;;;;5098580;27;20461;-86
2022/08/29 11:21:34;;;;;;;4.77;3.50;;;24.70;99.90;;;;;;5096518;28;20445;-82
2022/08/29 11:24:02;;;;;;;4.87;3.20;;;24.50;99.90;;;;;;5097530;28;20982;-85
2022/08/29 11:26:52;;;;;;;4.63;4.23;;;24.20;99.90;;;;;;5096164;28;20516;-82
2022/08/29 11:29:33;;;;;;;4.13;3.30;;;24.20;99.90;;;;;;5096042;28;20997;-82
2022/08/29 11:32:08;;;;;;;3.40;3.10;;;24.40;99.90;;;;;;5095933;28;21069;-82
2022/08/29 11:34:46;;;;;;;2.33;2.23;;;24.60;99.90;;;;;;5097906;28;20480;-82
2022/08/29 11:37:46;;;;;;;4.37;3.00;;;24.40;99.90;;;;;;5101574;27;20457;-82
2022/08/29 11:40:39;;;;;;;2.90;2.03;;;23.70;99.90;;;;;;5097337;28;20810;-81
2022/08/29 11:43:10;;;;;;;2.47;2.27;;;23.70;99.90;;;;;;5096830;28;20490;-80
2022/08/29 11:45:44;;;;;;;4.10;3.60;;;24.10;99.90;;;;;;5097878;27;20821;-82
2022/08/29 11:48:30;;;;;;;3.87;3.50;;;24.40;99.90;;;;;;5094085;28;20483;-84
2022/08/29 11:50:57;;;;;;;2.53;2.20;;;24.20;99.90;;;;;;5104602;28;21011;-81
2022/08/29 11:53:33;;;;;;;6.23;3.50;;;24.60;99.90;;;;;;5106472;28;20487;-83
2022/08/29 11:56:25;;;;;;;2.90;2.70;;;25.00;99.90;;;;;;5110215;28;20449;-83
2022/08/29 11:58:54;;;;;;;3.17;2.97;;;25.00;99.90;;;;;;5068010;28;20470;-81
2022/08/29 12:01:56;;;;;;;2.90;2.70;;;24.70;99.90;;;;;;5097064;28;20902;-81
2022/08/29 12:04:53;;;;;;;3.23;2.93;;;24.70;99.90;;;;;;5069066;28;21034;-82
2022/08/29 12:07:32;;;;;;;4.10;3.00;;;24.90;99.90;;;;;;5097260;28;20473;-82
2022/08/29 12:10:02;;;;;;;2.87;2.67;;;25.20;99.90;;;;;;5100826;28;20476;-82
2022/08/29 12:12:47;;;;;;;2.83;2.53;;;25.10;99.90;;;;;;5116365;28;20473;-82
2022/08/29 12:15:51;;;;;;;2.73;2.53;;;25.20;99.90;;;;;;5100781;28;20511;-82
2022/08/29 12:18:45;;;;;;;3.90;3.60;;;25.40;99.90;;;;;;5099473;28;20507;-81
2022/08/29 12:21:32;;;;;;;2.70;2.50;;;24.90;99.90;;;;;;5103864;28;20466;-84
2022/08/29 12:24:00;;;;;;;3.47;3.13;;;25.20;99.90;;;;;;5104705;28;20741;-85
2022/08/29 12:26:43;;;;;;;3.00;2.80;;;25.20;99.90;;;;;;5101420;27;21481;-85
2022/08/29 12:29:18;;;;;;;2.93;2.70;;;25.10;99.90;;;;;;5113547;27;20477;-86
2022/08/29 12:32:04;;;;;;;3.47;3.17;;;25.40;99.90;;;;;;5110189;28;20449;-81
2022/08/29 12:34:44;;;;;;;3.20;2.90;;;25.80;99.90;;;;;;5123175;27;20449;-83
2022/08/29 12:37:39;;;;;;;2.80;2.60;;;26.00;99.90;;;;;;5111105;27;20465;-83
2022/08/29 12:40:31;;;;;;;3.53;2.80;;;26.00;98.80;;;;;;5105504;28;20546;-83
2022/08/29 12:43:22;;;;;;;3.30;2.43;;;26.10;99.60;;;;;;5110407;27;20815;-81
2022/08/29 12:45:50;;;;;;;2.73;2.27;;;26.30;99.80;;;;;;5107423;27;20493;-81
2022/08/29 12:48:22;;;;;;;2.90;2.70;;;26.20;99.90;;;;;;5108371;27;20547;-81
2022/08/29 12:50:49;;;;;;;4.30;3.20;;;26.00;99.10;;;;;;5117302;27;20453;-83
2022/08/29 12:53:19;;;;;;;2.60;2.40;;;25.20;99.40;;;;;;5109404;28;20503;-82
2022/08/29 12:55:49;;;;;;;2.63;1.73;;;25.20;98.40;;;;;;5115748;27;20457;-82
2022/08/29 12:58:35;;;;;;;2.47;2.27;;;25.00;99.20;;;;;;5109015;28;20499;-87
2022/08/29 13:01:03;;;;;;;2.60;2.40;;;25.10;97.90;;;;;;5109236;28;20484;-83
2022/08/29 13:03:30;;;;;;;2.87;2.63;;;25.20;99.30;;;;;;5110392;27;20558;-82
2022/08/29 13:06:05;;;;;;;3.67;2.63;;;25.40;99.90;;;;;;5117714;27;20469;-83
2022/08/29 13:08:35;;;;;;;4.27;2.67;;;25.40;99.90;;;;;;5121637;27;21074;-82
2022/08/29 13:11:06;;;;;;;3.50;2.47;;;25.50;98.90;;;;;;5097313;28;20949;-83
2022/08/29 13:13:34;;;;;;;2.00;1.90;;;25.50;99.00;;;;;;5109319;27;20470;-83